Dati Storici

Data ora Umidita' aria (%) Temperatura aria (°C) Rad globale (W/m²) Gonioanemometro (°) Tacoanemometro (m/s) Pioggia (mm)
01-07-2020 07:30 83.3 % 25.373 -78.496 0.627 0 0
01-07-2020 07:20 88.2 % 24.841 -76.618 0.329 0 0
01-07-2020 07:10 90.1 % 24.445 -72.23 1.526 0 0
01-07-2020 07:00 92.3 % 24.183 -74.093 2.328 0 0
01-07-2020 06:50 93.2 % 24.085 -53.864 -0.013 0 0
01-07-2020 06:40 93.8 % 23.84 -73.816 1.491 0 0
01-07-2020 06:30 94.8 % 23.818 -68.706 1.748 0 0
01-07-2020 06:20 95.8 % 23.481 -73.653 0.71 0 0
01-07-2020 06:10 97.5 % 23.518 -75.693 2.171 0 0
01-07-2020 06:00 97.5 % 23.052 -73.065 0.922 0 0
01-07-2020 05:50 97.6 % 22.797 -63.801 -0.001 0 0
01-07-2020 05:40 97.6 % 22.698 -76.897 0 0 0
01-07-2020 05:30 97.6 % 22.67 -79.097 1.042 0 0
01-07-2020 05:20 97.6 % 22.638 -79.247 -0.001 0 0
01-07-2020 05:10 97.6 % 22.624 -79.839 1.07 0 0
01-07-2020 05:00 97.6 % 22.712 -73.853 0.019 0 0
01-07-2020 04:50 97.6 % 22.69 -78.304 1.144 0 0
01-07-2020 04:40 97.6 % 22.66 -72.967 0.903 0 0
01-07-2020 04:30 97.6 % 22.633 -79.783 0.659 0 0
01-07-2020 04:20 97.6 % 22.626 -75.776 1.029 0 0

I dati sono presentati in modo automatico a scopo informativo. In seguito a verifica i dati possono subire modifiche o essere invalidati e non riportati negli archivi definitivi.